Time;durP1;ratioP1;P1;durP2;ratioP2;P2;SDS_P1;SDS_P2;PMS_P1;PMS_P2;Temp;Humidity;BMP_temperature;BMP_pressure;BME280_temperature;BME280_humidity;BME280_pressure;Samples;Min_cycle;Max_cycle;Signal;HPM_P1;HPM_P2
2023/01/21 00:01:17;;;;;;;16.38;8.45;;;;;;;2.43;100.00;99846.03;4996866;28;20033;-79
2023/01/21 00:03:43;;;;;;;12.60;7.40;;;;;;;2.83;100.00;99928.09;5006501;28;20062;-81
2023/01/21 00:06:10;;;;;;;19.88;9.73;;;;;;;2.64;100.00;99931.13;5007015;28;20050;-78
2023/01/21 00:08:35;;;;;;;17.88;8.45;;;;;;;2.18;100.00;99816.97;5003927;28;20899;-84
2023/01/21 00:11:13;;;;;;;13.05;7.57;;;;;;;2.82;100.00;99934.16;5002117;28;20053;-77
2023/01/21 00:13:39;;;;;;;13.57;8.32;;;;;;;2.05;100.00;99799.41;5000343;28;20033;-83
2023/01/21 00:16:05;;;;;;;16.38;8.65;;;;;;;2.67;100.00;99937.25;5007370;28;20850;-76
2023/01/21 00:18:31;;;;;;;13.23;9.27;;;;;;;2.64;100.00;99911.25;5011736;28;20128;-77
2023/01/21 00:20:56;;;;;;;17.05;9.80;;;;;;;1.85;100.00;99804.97;5001604;28;20604;-77
2023/01/21 00:23:22;;;;;;;19.92;11.38;;;;;;;2.80;100.00;99937.53;4993996;28;20550;-76
2023/01/21 00:25:47;;;;;;;15.32;9.27;;;;;;;2.57;100.00;99936.97;4999280;28;20048;-81
2023/01/21 00:28:13;;;;;;;13.90;9.48;;;;;;;2.69;100.00;99938.16;5004388;28;20046;-80
2023/01/21 00:30:40;;;;;;;19.40;10.52;;;;;;;2.00;100.00;99809.63;5002149;28;20050;-79
2023/01/21 00:33:06;;;;;;;14.25;9.07;;;;;;;2.54;100.00;99919.66;4999052;28;20078;-79
2023/01/21 00:35:32;;;;;;;12.85;7.82;;;;;;;1.78;100.00;99795.31;5003533;28;20157;-80
2023/01/21 00:37:57;;;;;;;17.02;9.02;;;;;;;2.01;100.00;99839.81;5005504;28;20686;-79
2023/01/21 00:40:23;;;;;;;18.65;10.90;;;;;;;2.61;100.00;99951.75;5002347;28;20041;-79
2023/01/21 00:42:49;;;;;;;14.82;8.32;;;;;;;2.11;100.00;99878.06;4999218;28;20528;-79
2023/01/21 00:45:14;;;;;;;14.65;8.50;;;;;;;2.04;100.00;99852.00;4999118;28;20061;-80
2023/01/21 00:47:40;;;;;;;14.60;8.65;;;;;;;2.03;100.00;99858.00;4998419;28;20153;-80
2023/01/21 00:50:07;;;;;;;17.75;11.30;;;;;;;1.90;100.00;99836.13;5007250;28;20050;-79
2023/01/21 00:52:33;;;;;;;17.75;11.25;;;;;;;2.54;100.00;99953.31;4997906;28;20023;-79
2023/01/21 00:54:58;;;;;;;21.17;10.70;;;;;;;2.31;100.00;99919.94;5007635;28;20041;-79
2023/01/21 00:57:24;;;;;;;12.95;10.32;;;;;;;2.71;100.00;99980.50;5005726;28;20045;-80
2023/01/21 00:59:49;;;;;;;15.10;9.57;;;;;;;2.40;100.00;99942.63;5005321;28;20120;-80
2023/01/21 01:02:15;;;;;;;44.38;11.38;;;;;;;2.09;100.00;99894.38;5006604;28;20519;-78
2023/01/21 01:04:40;;;;;;;23.73;9.75;;;;;;;2.58;100.00;99978.47;5003518;28;20569;-79
2023/01/21 01:07:06;;;;;;;17.10;9.55;;;;;;;1.93;100.00;99876.72;5011270;28;20440;-79
2023/01/21 01:09:31;;;;;;;14.82;8.60;;;;;;;2.59;100.00;99997.47;5001476;28;20241;-77
2023/01/21 01:11:57;;;;;;;18.63;9.82;;;;;;;2.22;100.00;100009.44;5002962;28;20045;-79
2023/01/21 01:14:23;;;;;;;16.38;9.75;;;;;;;2.18;100.00;99964.50;5008025;28;20573;-79
2023/01/21 01:16:48;;;;;;;19.92;11.40;;;;;;;1.60;100.00;99872.41;5005164;28;20034;-82
2023/01/21 01:19:14;;;;;;;16.95;10.18;;;;;;;1.74;100.00;99881.41;5006230;28;20052;-79
2023/01/21 01:21:40;;;;;;;16.77;9.65;;;;;;;2.28;100.00;99978.56;5003288;28;20053;-80
2023/01/21 01:24:06;;;;;;;18.92;10.45;;;;;;;2.48;100.00;99997.19;5002412;28;20147;-81
2023/01/21 01:26:34;;;;;;;16.88;9.68;;;;;;;2.48;100.00;100013.63;5000740;28;20051;-78
2023/01/21 01:29:00;;;;;;;15.05;10.00;;;;;;;2.42;100.00;100007.41;5004802;28;20050;-78
2023/01/21 01:31:25;;;;;;;18.00;10.23;;;;;;;2.48;100.00;100020.47;5006396;28;20075;-81
2023/01/21 01:33:51;;;;;;;14.85;10.30;;;;;;;1.67;100.00;99880.34;5008956;28;20053;-79
2023/01/21 01:36:19;;;;;;;16.63;8.90;;;;;;;1.60;100.00;99893.94;5004127;28;20053;-80
2023/01/21 01:38:45;;;;;;;17.05;9.80;;;;;;;1.61;100.00;99900.84;4997330;28;20050;-76
2023/01/21 01:41:16;;;;;;;19.00;10.50;;;;;;;2.20;100.00;100011.09;5013752;28;20053;-80
2023/01/21 01:43:57;;;;;;;23.48;9.25;;;;;;;2.46;100.00;100027.38;4998100;28;20108;-80
2023/01/21 01:46:28;;;;;;;16.20;9.95;;;;;;;1.69;100.00;99894.19;5006003;28;20074;-80
2023/01/21 01:49:06;;;;;;;18.25;11.27;;;;;;;2.28;100.00;100022.56;5005720;28;20049;-80
2023/01/21 01:51:40;;;;;;;15.98;10.57;;;;;;;1.74;100.00;99908.97;5004001;28;20363;-79
2023/01/21 01:54:08;;;;;;;20.65;12.02;;;;;;;1.55;100.00;99900.72;5001608;28;20037;-79
2023/01/21 01:56:36;;;;;;;20.63;11.45;;;;;;;1.48;100.00;99899.66;5009243;28;20060;-80
2023/01/21 01:59:01;;;;;;;14.52;8.55;;;;;;;2.02;100.00;100032.19;5002257;28;20153;-80
2023/01/21 02:01:27;;;;;;;13.82;9.55;;;;;;;2.28;100.00;100033.78;5002780;28;20108;-80
2023/01/21 02:03:58;;;;;;;17.95;10.50;;;;;;;2.26;100.00;100032.00;5006147;28;20100;-79
2023/01/21 02:06:24;;;;;;;19.23;9.77;;;;;;;2.31;100.00;100033.00;4999366;28;20136;-82
2023/01/21 02:08:50;;;;;;;18.00;11.15;;;;;;;1.59;100.00;99915.47;5001105;28;20065;-81
2023/01/21 02:11:18;;;;;;;20.25;11.57;;;;;;;1.71;100.00;99970.94;5005851;28;20094;-80
2023/01/21 02:13:55;;;;;;;19.65;10.38;;;;;;;2.19;100.00;100022.31;5000680;28;20042;-83
2023/01/21 02:16:59;;;;;;;17.20;11.23;;;;;;;2.26;100.00;100068.22;5007270;28;20044;-80
2023/01/21 02:19:40;;;;;;;;;;;;;;;2.11;100.00;100074.75;4985485;28;20077;-78
2023/01/21 02:22:43;;;;;;;16.13;9.55;;;;;;;2.12;100.00;100080.78;4997432;28;20389;-78
2023/01/21 02:25:33;;;;;;;18.60;10.73;;;;;;;2.27;100.00;100073.47;4998733;28;20057;-79
2023/01/21 02:28:30;;;;;;;17.95;9.98;;;;;;;1.58;100.00;100011.97;5002412;28;20056;-78
2023/01/21 02:31:17;;;;;;;16.58;9.23;;;;;;;2.01;100.00;100077.00;4998186;28;20069;-77
2023/01/21 02:33:45;;;;;;;19.23;10.45;;;;;;;1.34;100.00;99938.88;4998789;28;20065;-76
2023/01/21 02:36:31;;;;;;;17.02;9.98;;;;;;;2.00;100.00;100067.50;5010710;28;20049;-76
2023/01/21 02:39:10;;;;;;;17.08;10.02;;;;;;;1.21;100.00;99959.16;4998682;28;20068;-76
2023/01/21 02:41:41;;;;;;;17.67;9.65;;;;;;;1.94;100.00;100057.84;5003403;28;20204;-77
2023/01/21 02:44:19;;;;;;;18.73;10.63;;;;;;;1.83;100.00;100075.66;4998301;28;20081;-76
2023/01/21 02:46:49;;;;;;;17.65;9.73;;;;;;;1.58;100.00;100047.28;4997371;28;20046;-78
2023/01/21 02:49:24;;;;;;;20.48;11.80;;;;;;;1.77;100.00;100074.59;5000277;28;20038;-78
2023/01/21 02:51:49;;;;;;;18.83;11.43;;;;;;;0.66;100.00;99838.69;5014921;28;20421;-78
2023/01/21 02:54:38;;;;;;;24.85;11.60;;;;;;;1.99;100.00;100056.28;4996831;28;20058;-75
2023/01/21 02:57:16;;;;;;;20.30;10.45;;;;;;;1.40;100.00;99970.94;4997010;28;20062;-76
2023/01/21 02:59:46;;;;;;;20.40;12.82;;;;;;;1.17;100.00;99930.59;5000293;28;20044;-78
2023/01/21 03:02:56;;;;;;;17.60;8.68;;;;;;;1.90;100.00;100058.59;5005166;28;20038;-76
2023/01/21 03:05:44;;;;;;;17.10;9.57;;;;;;;1.45;100.00;100067.63;5000145;28;20096;-78
2023/01/21 03:08:29;;;;;;;19.15;12.48;;;;;;;1.66;100.00;100067.38;4994086;28;20054;-77
2023/01/21 03:11:06;;;;;;;13.60;9.63;;;;;;;1.34;100.00;100034.50;4998993;28;20050;-76
2023/01/21 03:19:17;;;;;;;19.52;11.40;;;;;;;1.40;100.00;100050.19;5002866;28;20477;-77
2023/01/21 03:21:44;;;;;;;21.13;9.55;;;;;;;1.58;100.00;100055.91;5000627;28;20069;-79
2023/01/21 03:24:12;;;;;;;19.67;11.15;;;;;;;1.25;100.00;99984.28;4996673;28;20855;-78
2023/01/21 03:26:43;;;;;;;18.02;10.85;;;;;;;1.11;100.00;99956.28;5001461;28;20065;-78
2023/01/21 03:29:15;;;;;;;17.45;10.80;;;;;;;1.72;100.00;100055.47;5002089;28;20061;-78
2023/01/21 03:31:45;;;;;;;18.10;10.75;;;;;;;1.69;100.00;100049.38;4996260;28;20057;-76
2023/01/21 03:34:14;;;;;;;17.38;9.07;;;;;;;1.53;100.00;99997.16;5000317;28;20053;-84
2023/01/21 03:37:04;;;;;;;13.68;8.13;;;;;;;1.02;100.00;99934.47;5003133;28;20058;-81
2023/01/21 03:39:54;;;;;;;16.85;9.45;;;;;;;1.62;100.00;100075.00;5000475;28;20112;-78
2023/01/21 03:42:21;;;;;;;16.40;8.88;;;;;;;1.62;100.00;100080.19;4994528;28;20049;-81
2023/01/21 03:44:47;;;;;;;15.65;10.50;;;;;;;1.48;100.00;100072.00;4999881;28;20065;-78
2023/01/21 03:47:15;;;;;;;18.67;10.93;;;;;;;1.44;100.00;100098.56;5004043;28;20053;-80
2023/01/21 03:49:49;;;;;;;13.55;8.18;;;;;;;1.48;100.00;100092.69;5005327;28;20052;-81
2023/01/21 03:52:18;;;;;;;12.77;9.10;;;;;;;0.83;100.00;100000.19;4999651;28;20060;-76
2023/01/21 03:54:46;;;;;;;16.95;10.20;;;;;;;0.80;100.00;99988.91;5005956;28;20057;-78
2023/01/21 03:57:11;;;;;;;14.35;8.55;;;;;;;0.68;100.00;99973.88;5002367;28;20557;-78
2023/01/21 03:59:36;;;;;;;14.45;9.48;;;;;;;0.60;100.00;99972.75;5005715;28;20042;-78
2023/01/21 04:02:02;;;;;;;14.48;7.78;;;;;;;0.58;100.00;99964.06;5008376;28;20512;-78
2023/01/21 04:04:27;;;;;;;16.27;9.18;;;;;;;0.76;100.00;99981.88;5007691;28;20457;-78
2023/01/21 04:06:53;;;;;;;14.85;9.57;;;;;;;1.20;100.00;100071.13;5003759;28;20049;-79
2023/01/21 04:09:18;;;;;;;17.08;10.57;;;;;;;0.54;100.00;99993.19;5003127;28;20046;-80
2023/01/21 04:11:44;;;;;;;17.63;10.20;;;;;;;1.25;100.00;100092.81;5000243;28;20034;-76
2023/01/21 04:14:09;;;;;;;18.90;9.75;;;;;;;0.70;100.00;99990.28;5006243;28;20054;-78
2023/01/21 04:16:35;;;;;;;18.08;8.93;;;;;;;1.43;100.00;100095.13;5008627;28;20030;-79
2023/01/21 04:19:00;;;;;;;19.88;10.30;;;;;;;1.52;100.00;100098.81;5003671;28;20500;-78
2023/01/21 04:21:25;;;;;;;19.25;10.82;;;;;;;0.69;100.00;99965.28;4998279;28;20046;-78
2023/01/21 04:23:51;;;;;;;16.15;8.82;;;;;;;1.46;100.00;100086.56;4992624;28;20142;-77
2023/01/21 04:26:16;;;;;;;16.45;10.07;;;;;;;1.05;100.00;100084.44;5004336;28;20058;-78
2023/01/21 04:28:42;;;;;;;15.82;10.63;;;;;;;0.75;100.00;99982.69;5007609;28;20041;-77
2023/01/21 04:31:07;;;;;;;18.52;10.52;;;;;;;1.36;100.00;100084.50;5006885;28;20490;-78
2023/01/21 04:33:33;;;;;;;14.98;8.40;;;;;;;0.72;100.00;99975.72;5007178;28;20050;-78
2023/01/21 04:35:59;;;;;;;17.25;9.10;;;;;;;0.89;100.00;100025.34;5008429;28;20100;-80
2023/01/21 04:38:26;;;;;;;12.32;8.45;;;;;;;1.25;100.00;100115.19;5004635;28;20045;-79
2023/01/21 04:40:51;;;;;;;14.57;9.27;;;;;;;0.69;100.00;100005.72;5004982;28;20115;-78
2023/01/21 04:43:17;;;;;;;15.38;10.18;;;;;;;1.45;100.00;100126.16;5012833;28;21570;-79
2023/01/21 04:45:42;;;;;;;16.10;10.10;;;;;;;1.16;100.00;100100.28;5002856;28;20050;-80
2023/01/21 04:48:08;;;;;;;23.27;9.80;;;;;;;0.68;100.00;99984.22;5005029;28;20054;-79
2023/01/21 04:50:34;;;;;;;18.13;9.82;;;;;;;0.74;100.00;100006.75;5003338;28;20042;-77
2023/01/21 04:52:59;;;;;;;18.70;10.60;;;;;;;0.96;100.00;100034.16;4996750;28;20100;-81
2023/01/21 04:55:25;;;;;;;17.55;10.35;;;;;;;1.46;100.00;100131.41;5000583;28;20038;-79
2023/01/21 04:57:50;;;;;;;17.98;10.05;;;;;;;1.46;100.00;100109.84;5004206;28;20245;-79
2023/01/21 05:00:16;;;;;;;17.02;10.95;;;;;;;1.53;100.00;100135.06;5001135;28;20449;-79
2023/01/21 05:02:42;;;;;;;17.58;10.95;;;;;;;1.04;100.00;100058.53;5004218;28;20057;-78
2023/01/21 05:05:07;;;;;;;15.02;8.27;;;;;;;1.71;100.00;100158.03;5002721;28;20049;-77
2023/01/21 05:07:33;;;;;;;19.13;10.55;;;;;;;1.52;100.00;100125.53;5003603;28;20053;-78
2023/01/21 05:09:58;;;;;;;17.17;10.63;;;;;;;1.68;100.00;100157.94;5006585;28;20073;-78
2023/01/21 05:12:23;;;;;;;19.83;10.32;;;;;;;1.24;100.00;100074.66;5002841;28;20037;-82
2023/01/21 05:14:53;;;;;;;19.67;10.35;;;;;;;0.86;100.00;100030.38;5002488;28;20046;-78
2023/01/21 05:17:19;;;;;;;17.98;9.57;;;;;;;1.43;100.00;100144.22;5016922;28;20049;-77
2023/01/21 05:19:45;;;;;;;24.38;10.52;;;;;;;0.59;100.00;100040.69;5003283;28;20083;-77
2023/01/21 05:22:10;;;;;;;13.43;9.77;;;;;;;1.54;100.00;100166.97;5005878;28;20073;-78
2023/01/21 05:24:36;;;;;;;19.05;10.20;;;;;;;0.65;100.00;100007.31;5005740;28;20557;-77
2023/01/21 05:27:01;;;;;;;18.13;10.50;;;;;;;1.20;100.00;100127.97;5008290;28;20046;-79
2023/01/21 05:29:27;;;;;;;14.10;8.85;;;;;;;1.39;100.00;100159.59;5006262;28;20062;-77
2023/01/21 05:31:52;;;;;;;18.40;9.63;;;;;;;1.48;100.00;100176.28;5003863;28;20033;-77
2023/01/21 05:34:18;;;;;;;17.90;11.38;;;;;;;0.88;100.00;100102.78;5015885;28;20025;-77
2023/01/21 05:36:43;;;;;;;16.98;9.10;;;;;;;1.53;100.00;100180.72;5009639;28;20829;-79
2023/01/21 05:39:09;;;;;;;21.65;11.98;;;;;;;0.89;100.00;100053.75;5006065;28;20572;-77
2023/01/21 05:41:34;;;;;;;20.73;10.18;;;;;;;0.79;100.00;100055.13;5004358;28;20045;-80
2023/01/21 05:43:59;;;;;;;18.85;12.23;;;;;;;0.72;100.00;100029.06;5005538;28;20133;-79
2023/01/21 05:46:25;;;;;;;20.95;11.18;;;;;;;1.61;100.00;100185.28;5007428;28;20204;-80
2023/01/21 05:48:50;;;;;;;19.73;11.30;;;;;;;1.55;100.00;100164.44;5003790;28;20046;-81
2023/01/21 05:51:16;;;;;;;19.25;10.70;;;;;;;1.73;100.00;100192.56;5006155;28;20046;-82
2023/01/21 05:53:41;;;;;;;22.88;11.80;;;;;;;0.93;100.00;100055.59;5003186;28;20057;-80
2023/01/21 05:56:07;;;;;;;20.90;11.82;;;;;;;1.29;100.00;100131.66;5006787;28;20058;-78
2023/01/21 05:58:32;;;;;;;27.65;11.70;;;;;;;1.60;100.00;100185.28;4999281;28;20037;-78
2023/01/21 06:00:58;;;;;;;21.63;11.73;;;;;;;0.87;100.00;100070.00;5010466;28;20187;-80
2023/01/21 06:03:24;;;;;;;18.75;10.27;;;;;;;1.52;100.00;100192.75;5004269;28;20121;-80
2023/01/21 06:05:50;;;;;;;15.45;9.75;;;;;;;0.28;100.00;99972.56;5001744;28;20084;-79
2023/01/21 06:08:16;;;;;;;22.55;12.93;;;;;;;1.80;100.00;100224.69;5002803;28;20038;-77
2023/01/21 06:10:42;;;;;;;21.83;10.52;;;;;;;1.12;100.00;100119.06;5005307;28;20607;-77
2023/01/21 06:13:11;;;;;;;14.65;9.55;;;;;;;1.82;100.00;100221.31;4999495;28;20032;-80
2023/01/21 06:15:36;;;;;;;19.48;11.40;;;;;;;1.69;100.00;100224.34;4998719;28;20076;-76
2023/01/21 06:18:02;;;;;;;19.67;11.15;;;;;;;2.03;100.00;100236.66;4996426;28;20514;-75
2023/01/21 06:20:30;;;;;;;24.55;10.48;;;;;;;2.01;100.00;100235.72;5004039;28;20054;-76
2023/01/21 06:22:57;;;;;;;20.60;10.65;;;;;;;1.23;100.00;100125.47;4998656;28;20473;-77
2023/01/21 06:25:24;;;;;;;21.88;13.00;;;;;;;2.02;100.00;100244.38;4999896;28;20318;-80
2023/01/21 06:27:52;;;;;;;18.95;10.23;;;;;;;1.54;100.00;100190.22;4999195;28;20046;-79
2023/01/21 06:30:18;;;;;;;17.70;11.05;;;;;;;2.03;100.00;100246.13;4997521;28;20509;-77
2023/01/21 06:32:43;;;;;;;21.92;11.82;;;;;;;2.06;100.00;100252.28;4995329;28;20053;-82
2023/01/21 06:35:08;;;;;;;19.10;11.23;;;;;;;2.05;100.00;100270.34;5003360;28;20049;-82
2023/01/21 06:37:34;;;;;;;19.85;13.52;;;;;;;1.26;100.00;100137.63;5001619;28;20128;-81
2023/01/21 06:39:59;;;;;;;21.48;12.65;;;;;;;1.27;100.00;100153.19;5000024;28;20054;-78
2023/01/21 06:42:25;;;;;;;24.55;11.82;;;;;;;1.71;100.00;100252.84;5000447;28;20493;-77
2023/01/21 06:44:50;;;;;;;21.98;11.60;;;;;;;1.55;100.00;100243.72;5000479;28;20598;-76
2023/01/21 06:47:16;;;;;;;17.67;10.60;;;;;;;1.32;100.00;100235.19;5002581;28;20482;-76
2023/01/21 06:49:41;;;;;;;15.82;10.13;;;;;;;0.51;100.00;100122.13;5001453;28;20533;-77
2023/01/21 06:52:07;;;;;;;19.35;12.43;;;;;;;1.02;100.00;100124.78;5007106;28;20033;-76
2023/01/21 06:54:33;;;;;;;24.20;12.93;;;;;;;1.27;100.00;100228.13;5008445;28;20056;-77
2023/01/21 06:56:58;;;;;;;20.45;12.77;;;;;;;1.32;100.00;100236.06;5003407;28;20049;-75
2023/01/21 06:59:24;;;;;;;20.38;11.50;;;;;;;1.74;100.00;100279.69;4991611;28;20104;-77
2023/01/21 07:01:49;;;;;;;20.70;13.20;;;;;;;0.80;100.00;100139.53;4999390;28;20128;-75
2023/01/21 07:04:15;;;;;;;19.60;10.23;;;;;;;2.01;100.00;100294.34;5003387;28;20049;-82
2023/01/21 07:06:40;;;;;;;19.67;11.35;;;;;;;1.88;100.00;100293.09;4993852;28;20045;-83
2023/01/21 07:09:07;;;;;;;18.50;10.57;;;;;;;1.72;100.00;100293.41;5002231;28;20092;-79
2023/01/21 07:11:33;;;;;;;25.85;12.95;;;;;;;1.66;100.00;100307.00;4994443;28;20058;-75
2023/01/21 07:13:58;;;;;;;23.85;12.70;;;;;;;0.85;100.00;100186.19;4993204;28;20056;-76
2023/01/21 07:16:24;;;;;;;20.85;13.05;;;;;;;1.96;100.00;100307.16;5000858;28;20398;-80
2023/01/21 07:18:49;;;;;;;21.98;13.50;;;;;;;1.82;100.00;100305.81;4990609;28;20050;-84
2023/01/21 07:21:15;;;;;;;27.60;14.30;;;;;;;1.98;100.00;100276.16;4995813;28;20768;-83
2023/01/21 07:23:40;;;;;;;21.45;11.52;;;;;;;1.66;100.00;100219.06;4990032;28;20369;-79
2023/01/21 07:26:06;;;;;;;22.13;11.50;;;;;;;1.57;100.00;100280.81;4990613;28;20139;-77
2023/01/21 07:28:32;;;;;;;22.20;13.32;;;;;;;1.97;100.00;100285.63;4993466;28;20034;-82
2023/01/21 07:30:58;;;;;;;23.60;12.38;;;;;;;1.90;100.00;100255.22;4994769;28;20711;-81
2023/01/21 07:33:24;;;;;;;28.30;14.82;;;;;;;1.24;100.00;100163.44;4999765;28;20149;-83
2023/01/21 07:35:50;;;;;;;22.63;14.23;;;;;;;2.07;100.00;100279.91;5000860;28;20046;-83
2023/01/21 07:38:15;;;;;;;25.60;16.63;;;;;;;2.29;100.00;100281.47;5001600;28;20054;-84
2023/01/21 07:40:41;;;;;;;24.08;16.25;;;;;;;1.69;100.00;100252.81;5007452;28;20093;-80
2023/01/21 07:43:07;;;;;;;30.05;17.45;;;;;;;1.53;100.00;100198.81;5007918;28;20050;-82
2023/01/21 07:45:33;;;;;;;26.90;16.00;;;;;;;2.29;100.00;100309.97;5008098;28;20056;-83
2023/01/21 07:47:58;;;;;;;27.40;16.00;;;;;;;1.43;100.00;100175.25;4995746;28;20058;-81
2023/01/21 07:50:24;;;;;;;28.05;17.65;;;;;;;2.39;100.00;100313.72;5001283;28;20127;-84
2023/01/21 07:52:53;;;;;;;25.45;13.52;;;;;;;2.27;100.00;100316.78;5000693;28;20037;-82
2023/01/21 07:55:19;;;;;;;24.80;15.82;;;;;;;2.64;100.00;100322.22;5003533;28;20042;-84
2023/01/21 07:57:44;;;;;;;26.95;17.52;;;;;;;1.98;100.00;100229.59;5007956;28;20051;-76
2023/01/21 08:00:11;;;;;;;23.15;13.82;;;;;;;2.53;100.00;100325.38;4991984;28;20502;-82
2023/01/21 08:02:37;;;;;;;34.67;16.90;;;;;;;2.08;100.00;100271.34;5006194;28;20050;-83
2023/01/21 08:05:02;;;;;;;32.42;18.40;;;;;;;2.44;100.00;100334.56;5000117;28;20153;-80
2023/01/21 08:07:28;;;;;;;29.58;16.83;;;;;;;2.67;100.00;100307.66;5012531;28;20037;-82
2023/01/21 08:09:53;;;;;;;25.17;16.40;;;;;;;3.00;100.00;100342.28;4997851;28;20069;-81
2023/01/21 08:12:19;;;;;;;25.52;16.58;;;;;;;2.99;100.00;100307.72;5006923;28;20061;-83
2023/01/21 08:14:44;;;;;;;27.80;16.85;;;;;;;2.60;100.00;100248.75;5000854;28;20111;-84
2023/01/21 08:17:09;;;;;;;25.23;14.52;;;;;;;1.75;100.00;100231.44;5006073;28;20481;-80
2023/01/21 08:19:35;;;;;;;25.20;15.82;;;;;;;2.27;100.00;100319.38;5013111;28;20668;-82
2023/01/21 08:22:00;;;;;;;28.73;17.00;;;;;;;2.45;100.00;100357.03;5006870;28;20180;-81
2023/01/21 08:24:26;;;;;;;29.73;17.10;;;;;;;2.89;100.00;100368.78;4996797;28;20041;-80
2023/01/21 08:26:51;;;;;;;26.90;15.32;;;;;;;2.25;100.00;100283.94;5003736;28;20042;-81
2023/01/21 08:29:17;;;;;;;22.23;14.45;;;;;;;2.11;100.00;100255.91;5013069;28;20486;-83
2023/01/21 08:31:42;;;;;;;25.80;14.18;;;;;;;1.84;100.00;100211.91;5002553;28;20034;-81
2023/01/21 08:34:08;;;;;;;23.42;14.93;;;;;;;2.81;100.00;100385.81;5001072;28;20069;-81
2023/01/21 08:36:33;;;;;;;25.58;15.30;;;;;;;3.12;100.00;100394.50;5003539;28;20053;-80
2023/01/21 08:39:02;;;;;;;26.13;14.63;;;;;;;2.88;100.00;100399.81;5005117;28;20062;-78
2023/01/21 08:41:28;;;;;;;26.67;15.35;;;;;;;3.14;100.00;100395.44;4998566;28;20045;-82
2023/01/21 08:43:53;;;;;;;25.60;14.70;;;;;;;2.30;100.00;100259.94;4995657;28;20337;-79
2023/01/21 08:46:19;;;;;;;32.08;16.20;;;;;;;3.08;100.00;100359.81;5003401;28;20034;-79
2023/01/21 08:48:44;;;;;;;22.00;14.18;;;;;;;3.45;100.00;100404.97;4998125;28;20726;-82
2023/01/21 08:51:10;;;;;;;23.50;14.32;;;;;;;3.16;100.00;100385.97;5001372;28;20050;-84
2023/01/21 08:53:35;;;;;;;26.27;15.20;;;;;;;3.32;100.00;100405.44;5000277;28;20747;-82
2023/01/21 08:56:03;;;;;;;25.15;14.70;;;;;;;3.62;100.00;100381.22;4996252;28;20061;-80
2023/01/21 08:58:29;;;;;;;21.50;14.20;;;;;;;3.48;100.00;100404.19;4996848;28;20030;-81
2023/01/21 09:00:56;;;;;;;26.45;15.82;;;;;;;3.57;100.00;100387.16;5000291;28;20129;-82
2023/01/21 09:03:21;;;;;;;26.17;13.60;;;;;;;3.56;100.00;100403.56;4999575;28;20046;-81
2023/01/21 09:05:47;;;;;;;17.75;13.35;;;;;;;2.55;100.00;100286.56;5004597;28;20166;-81
2023/01/21 09:08:12;;;;;;;22.40;14.50;;;;;;;3.30;100.00;100388.97;5006462;28;20066;-80
2023/01/21 09:13:22;;;;;;;22.65;13.55;;;;;;;3.45;100.00;100306.41;5002909;28;20029;-79
2023/01/21 09:15:48;;;;;;;27.15;15.93;;;;;;;3.94;100.00;100395.06;5001230;28;20041;-80
2023/01/21 09:18:13;;;;;;;23.40;14.98;;;;;;;3.69;100.00;100301.00;5004852;28;20422;-82
2023/01/21 09:20:39;;;;;;;26.80;15.85;;;;;;;2.90;100.00;100310.94;5008563;28;20084;-80
2023/01/21 09:23:22;;;;;;;31.27;17.02;;;;;;;3.45;100.00;100366.06;5000370;28;20058;-77
2023/01/21 09:25:52;;;;;;;;;;;;;;;3.54;100.00;100381.91;5003127;28;20794;-78
2023/01/21 09:28:19;;;;;;;21.33;13.90;;;;;;;2.98;100.00;100269.69;4996595;28;19922;-79
2023/01/21 09:30:45;;;;;;;19.30;12.43;;;;;;;3.58;100.00;100337.06;5006556;28;20077;-78
2023/01/21 09:33:11;;;;;;;23.45;15.77;;;;;;;3.65;100.00;100357.94;5001671;28;20054;-80
2023/01/21 09:35:37;;;;;;;20.25;12.68;;;;;;;3.06;100.00;100238.78;5006625;28;20144;-79
2023/01/21 09:38:02;;;;;;;23.13;15.07;;;;;;;3.81;100.00;100347.13;5006870;28;20578;-77
2023/01/21 09:40:28;;;;;;;25.08;14.38;;;;;;;3.97;100.00;100364.00;5001872;28;20065;-78
2023/01/21 09:42:54;;;;;;;24.40;15.02;;;;;;;3.99;100.00;100347.63;5004771;28;20042;-77
2023/01/21 09:45:20;;;;;;;32.53;16.60;;;;;;;3.50;100.00;100257.25;4996131;28;20141;-76
2023/01/21 09:47:48;;;;;;;27.80;13.77;;;;;;;3.74;100.00;100254.41;5000913;28;20137;-76
2023/01/21 09:50:19;;;;;;;26.05;14.52;;;;;;;3.80;100.00;100241.59;4995412;28;20132;-76
2023/01/21 09:52:53;;;;;;;26.13;14.65;;;;;;;3.96;100.00;100299.94;4994185;28;20045;-77
2023/01/21 09:55:39;;;;;;;25.92;16.10;;;;;;;4.38;100.00;100362.44;4998415;28;20540;-78
2023/01/21 09:58:21;;;;;;;24.13;15.10;;;;;;;3.80;100.00;100265.81;4992232;28;20064;-78
2023/01/21 10:00:56;;;;;;;23.65;15.55;;;;;;;4.42;100.00;100392.84;5001092;28;20046;-76
2023/01/21 10:03:38;;;;;;;25.88;16.23;;;;;;;4.58;100.00;100381.09;5004040;28;20053;-75
2023/01/21 10:06:22;;;;;;;23.55;14.52;;;;;;;4.61;100.00;100370.78;4999132;28;20061;-75
2023/01/21 10:09:37;;;;;;;21.35;12.68;;;;;;;4.60;100.00;100375.94;5001981;28;20133;-77
2023/01/21 10:12:11;;;;;;;;;;;;;;;5.06;100.00;100367.44;4937179;28;20039;-75
2023/01/21 10:14:59;;;;;;;22.60;14.30;;;;;;;5.16;100.00;100365.91;4942829;28;20420;-75
2023/01/21 10:17:34;;;;;;;25.10;15.80;;;;;;;5.05;100.00;100381.28;4984082;28;20369;-76
2023/01/21 10:20:23;;;;;;;22.88;13.73;;;;;;;4.95;100.00;100374.13;5002928;28;20469;-77
2023/01/21 10:22:56;;;;;;;22.85;13.15;;;;;;;4.28;100.00;100290.31;4999960;28;20034;-78
2023/01/21 10:25:26;;;;;;;20.13;14.03;;;;;;;5.17;100.00;100369.41;5009611;28;20493;-77
2023/01/21 10:27:54;;;;;;;22.10;12.50;;;;;;;5.27;100.00;100342.75;5014245;28;20460;-75
2023/01/21 10:30:22;;;;;;;21.20;13.30;;;;;;;5.30;100.00;100366.22;5010114;28;20116;-77
2023/01/21 10:32:53;;;;;;;21.33;14.07;;;;;;;5.45;100.00;100356.09;5005932;28;20045;-77
2023/01/21 10:35:44;;;;;;;26.13;16.50;;;;;;;4.82;100.00;100232.63;5000725;28;20116;-77
2023/01/21 10:38:30;;;;;;;23.67;14.65;;;;;;;5.82;100.00;100355.94;4992716;28;20092;-77
2023/01/21 10:41:25;;;;;;;21.30;15.48;;;;;;;4.69;100.00;100237.53;5001786;28;20196;-77
2023/01/21 10:44:07;;;;;;;18.88;11.80;;;;;;;5.99;100.00;100361.47;5006920;28;20112;-78
2023/01/21 10:46:49;;;;;;;17.48;12.25;;;;;;;5.74;100.00;100328.91;5001370;28;20129;-76
2023/01/21 10:49:43;;;;;;;18.80;12.25;;;;;;;5.74;100.00;100347.13;5003090;28;20046;-78
2023/01/21 10:52:18;;;;;;;21.35;13.73;;;;;;;6.13;100.00;100331.31;5006512;28;20058;-78
2023/01/21 10:55:27;;;;;;;22.38;13.93;;;;;;;6.36;100.00;100352.53;5000238;28;20050;-80
2023/01/21 10:58:00;;;;;;;21.17;12.73;;;;;;;6.47;100.00;100321.44;4999625;28;20065;-78
2023/01/21 11:00:35;;;;;;;28.10;16.03;;;;;;;6.53;100.00;100238.09;5006123;28;20061;-78
2023/01/21 11:03:08;;;;;;;24.52;13.52;;;;;;;6.74;100.00;100353.16;5014104;28;20552;-75
2023/01/21 11:05:34;;;;;;;;;;;;;;;6.87;100.00;100363.75;5005679;28;20050;-77
2023/01/21 11:08:01;;;;;;;22.27;13.05;;;;;;;6.63;100.00;100237.41;5003032;28;19967;-76
2023/01/21 11:10:27;;;;;;;18.02;10.55;;;;;;;7.21;100.00;100370.31;5009893;28;20053;-75
2023/01/21 11:12:54;;;;;;;23.38;14.25;;;;;;;6.34;100.00;100239.59;5004695;28;20060;-77
2023/01/21 11:15:20;;;;;;;19.45;12.95;;;;;;;7.50;100.00;100354.13;5000567;28;20034;-75
2023/01/21 11:17:48;;;;;;;21.60;12.38;;;;;;;7.59;100.00;100365.53;5004214;28;20060;-75
2023/01/21 11:20:37;;;;;;;18.88;11.52;;;;;;;7.33;100.00;100372.19;4998018;28;20065;-77
2023/01/21 11:23:04;;;;;;;23.05;13.35;;;;;;;6.07;100.00;100248.75;5010676;28;20128;-77
2023/01/21 11:25:40;;;;;;;28.70;13.73;;;;;;;6.88;100.00;100345.53;5005169;28;20030;-76
2023/01/21 11:28:23;;;;;;;18.83;11.23;;;;;;;6.16;100.00;100234.09;5006718;28;20066;-76
2023/01/21 11:30:49;;;;;;;22.35;13.07;;;;;;;6.43;100.00;100218.00;5008081;28;20038;-76
2023/01/21 11:33:17;;;;;;;23.88;16.55;;;;;;;7.61;100.00;100355.13;5007263;28;20425;-77